UKDE/OZH METAR and TAF weather

Enter ICAO airport designator
Station Type Date Time Source
UKDE METAR 2021/09/24 05:00 UTC NOAA

UKDE 240500Z 14001MPS 0200 0150S R20/0250N FG VV001 04/03 Q1012 R20/090070 NOSIG


Station Type Date Time Source
UKDE Decoded METAR 2021/09/24 05:00 UTC NOAA

Zaporizhzhia / Mokraya, Ukraine (UKDE) 47-52-02N 035-18-59E
Sep 24, 2021 - 01:00 AM EDT / 2021.09.24 0500 UTC
Wind: from the SE (140 degrees) at 2 MPH (2 KT):0
Visibility: less than 1 mile:0
Sky conditions: obscured
Weather: fog
Temperature: 39 F (4 C)
Dew Point: 37 F (3 C)
Relative Humidity: 93%
Pressure (altimeter): 29.88 in. Hg (1012 hPa)
ob: UKDE 240500Z 14001MPS 0200 0150S R20/0250N FG VV001 04/03 Q1012 R20/090070 NOSIG
cycle: 5

Station Type Date Time Source
UKDE TAF 2020/06/03 15:15 UTC NOAA

TAF
AMD TAF
AMD UKDE 031510Z 0315/0524 21007MPS 9999 BKN030CB
TEMPO 0315/0318 VRB15G20MPS 0300 +TSRAGR SQ BKN007 BKN013CB

Example: see airport list